sensor_id;sensor_type;location;lat;lon;timestamp;temperature;humidity
8105;DHT22;4095;48.942;9.104;2023-11-19T00:00:27;10.20;99.90
8105;DHT22;4095;48.942;9.104;2023-11-19T00:02:53;10.20;99.90
8105;DHT22;4095;48.942;9.104;2023-11-19T00:05:19;10.20;99.90
8105;DHT22;4095;48.942;9.104;2023-11-19T00:07:44;10.30;99.90
8105;DHT22;4095;48.942;9.104;2023-11-19T00:10:15;10.30;99.90
8105;DHT22;4095;48.942;9.104;2023-11-19T00:12:50;10.20;99.90
8105;DHT22;4095;48.942;9.104;2023-11-19T00:15:16;10.30;99.90
8105;DHT22;4095;48.942;9.104;2023-11-19T00:17:45;10.30;99.90
8105;DHT22;4095;48.942;9.104;2023-11-19T00:20:12;10.30;99.90
8105;DHT22;4095;48.942;9.104;2023-11-19T00:22:38;10.30;99.90
8105;DHT22;4095;48.942;9.104;2023-11-19T00:25:04;10.30;99.90
8105;DHT22;4095;48.942;9.104;2023-11-19T00:27:31;10.30;99.90
8105;DHT22;4095;48.942;9.104;2023-11-19T00:29:56;10.30;99.90
8105;DHT22;4095;48.942;9.104;2023-11-19T00:32:23;10.30;99.90
8105;DHT22;4095;48.942;9.104;2023-11-19T00:34:49;10.30;99.90
8105;DHT22;4095;48.942;9.104;2023-11-19T00:37:15;10.30;99.90
8105;DHT22;4095;48.942;9.104;2023-11-19T00:39:41;10.30;99.90
8105;DHT22;4095;48.942;9.104;2023-11-19T00:42:07;10.30;99.90
8105;DHT22;4095;48.942;9.104;2023-11-19T00:44:32;10.30;99.90
8105;DHT22;4095;48.942;9.104;2023-11-19T00:46:58;10.30;99.90
8105;DHT22;4095;48.942;9.104;2023-11-19T00:49:25;10.30;99.90
8105;DHT22;4095;48.942;9.104;2023-11-19T00:51:51;10.30;99.90
8105;DHT22;4095;48.942;9.104;2023-11-19T00:54:16;10.30;99.90
8105;DHT22;4095;48.942;9.104;2023-11-19T00:56:42;10.30;99.90
8105;DHT22;4095;48.942;9.104;2023-11-19T00:59:08;10.40;99.90
8105;DHT22;4095;48.942;9.104;2023-11-19T01:01:33;10.40;99.90
8105;DHT22;4095;48.942;9.104;2023-11-19T01:03:59;10.40;99.90
8105;DHT22;4095;48.942;9.104;2023-11-19T01:06:32;10.40;99.90
8105;DHT22;4095;48.942;9.104;2023-11-19T01:08:57;10.40;99.90
8105;DHT22;4095;48.942;9.104;2023-11-19T01:11:24;10.40;99.90
8105;DHT22;4095;48.942;9.104;2023-11-19T01:13:51;10.40;99.90
8105;DHT22;4095;48.942;9.104;2023-11-19T01:16:18;10.40;99.90
8105;DHT22;4095;48.942;9.104;2023-11-19T01:18:44;10.40;99.90
8105;DHT22;4095;48.942;9.104;2023-11-19T01:21:10;10.40;99.90
8105;DHT22;4095;48.942;9.104;2023-11-19T01:23:35;10.40;99.90
8105;DHT22;4095;48.942;9.104;2023-11-19T01:26:02;10.40;99.90
8105;DHT22;4095;48.942;9.104;2023-11-19T01:28:28;10.40;99.90
8105;DHT22;4095;48.942;9.104;2023-11-19T01:30:54;10.40;99.90
8105;DHT22;4095;48.942;9.104;2023-11-19T01:33:19;10.40;99.90
8105;DHT22;4095;48.942;9.104;2023-11-19T01:35:45;10.40;99.90
8105;DHT22;4095;48.942;9.104;2023-11-19T01:38:11;10.40;99.90
8105;DHT22;4095;48.942;9.104;2023-11-19T01:40:37;10.50;99.90
8105;DHT22;4095;48.942;9.104;2023-11-19T01:43:03;10.50;99.90
8105;DHT22;4095;48.942;9.104;2023-11-19T01:45:30;10.40;99.90
8105;DHT22;4095;48.942;9.104;2023-11-19T01:48:02;10.40;99.90
8105;DHT22;4095;48.942;9.104;2023-11-19T01:50:30;10.50;99.90
8105;DHT22;4095;48.942;9.104;2023-11-19T01:52:57;10.50;99.90
8105;DHT22;4095;48.942;9.104;2023-11-19T01:55:24;10.40;99.90
8105;DHT22;4095;48.942;9.104;2023-11-19T01:57:50;10.50;99.90
8105;DHT22;4095;48.942;9.104;2023-11-19T02:00:18;10.50;99.90
8105;DHT22;4095;48.942;9.104;2023-11-19T02:02:46;10.50;99.90
8105;DHT22;4095;48.942;9.104;2023-11-19T02:05:13;10.50;99.90
8105;DHT22;4095;48.942;9.104;2023-11-19T02:07:39;10.50;99.90
8105;DHT22;4095;48.942;9.104;2023-11-19T02:10:05;10.50;99.90
8105;DHT22;4095;48.942;9.104;2023-11-19T02:12:32;10.50;99.90
8105;DHT22;4095;48.942;9.104;2023-11-19T02:15:02;10.60;99.90
8105;DHT22;4095;48.942;9.104;2023-11-19T02:17:31;10.50;99.90
8105;DHT22;4095;48.942;9.104;2023-11-19T02:19:57;10.50;99.90
8105;DHT22;4095;48.942;9.104;2023-11-19T02:22:24;10.60;99.90
8105;DHT22;4095;48.942;9.104;2023-11-19T02:24:51;10.60;99.90
8105;DHT22;4095;48.942;9.104;2023-11-19T02:27:48;10.60;99.90
8105;DHT22;4095;48.942;9.104;2023-11-19T02:30:16;10.60;99.90
8105;DHT22;4095;48.942;9.104;2023-11-19T02:32:42;10.60;99.90
8105;DHT22;4095;48.942;9.104;2023-11-19T02:35:08;10.60;99.90
8105;DHT22;4095;48.942;9.104;2023-11-19T02:37:38;10.60;99.90
8105;DHT22;4095;48.942;9.104;2023-11-19T02:40:05;10.60;99.90
8105;DHT22;4095;48.942;9.104;2023-11-19T02:42:31;10.60;99.90
8105;DHT22;4095;48.942;9.104;2023-11-19T02:44:57;10.60;99.90
8105;DHT22;4095;48.942;9.104;2023-11-19T02:47:23;10.60;99.90
8105;DHT22;4095;48.942;9.104;2023-11-19T02:49:49;10.70;99.90
8105;DHT22;4095;48.942;9.104;2023-11-19T02:52:15;10.70;99.90
8105;DHT22;4095;48.942;9.104;2023-11-19T02:54:43;10.70;99.90
8105;DHT22;4095;48.942;9.104;2023-11-19T02:57:08;10.70;99.90
8105;DHT22;4095;48.942;9.104;2023-11-19T02:59:39;10.70;99.90
8105;DHT22;4095;48.942;9.104;2023-11-19T03:02:08;10.70;99.90
8105;DHT22;4095;48.942;9.104;2023-11-19T03:04:37;10.70;99.90
8105;DHT22;4095;48.942;9.104;2023-11-19T03:07:08;10.70;99.90
8105;DHT22;4095;48.942;9.104;2023-11-19T03:09:33;10.70;99.90
8105;DHT22;4095;48.942;9.104;2023-11-19T03:12:01;10.80;99.90
8105;DHT22;4095;48.942;9.104;2023-11-19T03:14:27;10.80;99.90
8105;DHT22;4095;48.942;9.104;2023-11-19T03:16:53;10.80;99.90
8105;DHT22;4095;48.942;9.104;2023-11-19T03:19:18;10.80;99.90
8105;DHT22;4095;48.942;9.104;2023-11-19T03:21:44;10.80;99.90
8105;DHT22;4095;48.942;9.104;2023-11-19T03:24:12;10.80;99.90
8105;DHT22;4095;48.942;9.104;2023-11-19T03:26:38;10.80;99.90
8105;DHT22;4095;48.942;9.104;2023-11-19T03:29:04;10.80;99.90
8105;DHT22;4095;48.942;9.104;2023-11-19T03:31:30;10.80;99.90
8105;DHT22;4095;48.942;9.104;2023-11-19T03:33:55;10.70;99.90
8105;DHT22;4095;48.942;9.104;2023-11-19T03:36:21;10.70;99.90
8105;DHT22;4095;48.942;9.104;2023-11-19T03:38:47;10.70;99.90
8105;DHT22;4095;48.942;9.104;2023-11-19T03:41:14;10.70;99.90
8105;DHT22;4095;48.942;9.104;2023-11-19T03:43:40;10.70;99.90
8105;DHT22;4095;48.942;9.104;2023-11-19T03:46:17;10.70;99.90
8105;DHT22;4095;48.942;9.104;2023-11-19T03:48:43;10.80;99.90
8105;DHT22;4095;48.942;9.104;2023-11-19T03:51:09;10.80;99.90
8105;DHT22;4095;48.942;9.104;2023-11-19T03:53:34;10.90;99.90
8105;DHT22;4095;48.942;9.104;2023-11-19T03:56:01;10.90;99.90
8105;DHT22;4095;48.942;9.104;2023-11-19T03:58:26;10.90;99.90
8105;DHT22;4095;48.942;9.104;2023-11-19T04:00:52;10.90;99.90
8105;DHT22;4095;48.942;9.104;2023-11-19T04:03:18;10.90;99.90
8105;DHT22;4095;48.942;9.104;2023-11-19T04:05:45;11.00;99.90
8105;DHT22;4095;48.942;9.104;2023-11-19T04:08:10;11.00;99.90
8105;DHT22;4095;48.942;9.104;2023-11-19T04:10:36;11.00;99.90
8105;DHT22;4095;48.942;9.104;2023-11-19T04:13:01;11.00;99.90
8105;DHT22;4095;48.942;9.104;2023-11-19T04:15:27;11.00;99.90
8105;DHT22;4095;48.942;9.104;2023-11-19T04:17:53;11.00;99.90
8105;DHT22;4095;48.942;9.104;2023-11-19T04:20:18;11.00;99.90
8105;DHT22;4095;48.942;9.104;2023-11-19T04:22:44;11.00;99.90
8105;DHT22;4095;48.942;9.104;2023-11-19T04:25:10;11.10;99.90
8105;DHT22;4095;48.942;9.104;2023-11-19T04:27:36;11.10;99.90
8105;DHT22;4095;48.942;9.104;2023-11-19T04:30:02;11.00;99.90
8105;DHT22;4095;48.942;9.104;2023-11-19T04:32:29;11.10;99.90
8105;DHT22;4095;48.942;9.104;2023-11-19T04:34:54;11.10;99.90
8105;DHT22;4095;48.942;9.104;2023-11-19T04:37:20;11.10;99.90
8105;DHT22;4095;48.942;9.104;2023-11-19T04:39:45;11.00;99.90
8105;DHT22;4095;48.942;9.104;2023-11-19T04:42:11;11.00;99.90
8105;DHT22;4095;48.942;9.104;2023-11-19T04:44:37;11.10;99.90
8105;DHT22;4095;48.942;9.104;2023-11-19T04:47:03;11.10;99.90
8105;DHT22;4095;48.942;9.104;2023-11-19T04:49:29;11.10;99.90
8105;DHT22;4095;48.942;9.104;2023-11-19T04:51:56;11.10;99.90
8105;DHT22;4095;48.942;9.104;2023-11-19T04:54:21;11.10;99.90
8105;DHT22;4095;48.942;9.104;2023-11-19T04:56:47;11.20;99.90
8105;DHT22;4095;48.942;9.104;2023-11-19T04:59:13;11.20;99.90
8105;DHT22;4095;48.942;9.104;2023-11-19T05:01:38;11.20;99.90
8105;DHT22;4095;48.942;9.104;2023-11-19T05:04:04;11.20;99.90
8105;DHT22;4095;48.942;9.104;2023-11-19T05:06:31;11.20;99.90
8105;DHT22;4095;48.942;9.104;2023-11-19T05:09:00;11.20;99.90
8105;DHT22;4095;48.942;9.104;2023-11-19T05:11:26;11.30;99.90
8105;DHT22;4095;48.942;9.104;2023-11-19T05:13:53;11.30;99.90
8105;DHT22;4095;48.942;9.104;2023-11-19T05:16:19;11.30;99.90
8105;DHT22;4095;48.942;9.104;2023-11-19T05:18:46;11.30;99.90
8105;DHT22;4095;48.942;9.104;2023-11-19T05:21:12;11.20;99.90
8105;DHT22;4095;48.942;9.104;2023-11-19T05:23:38;11.30;99.90
8105;DHT22;4095;48.942;9.104;2023-11-19T05:26:04;11.30;99.90
8105;DHT22;4095;48.942;9.104;2023-11-19T05:28:30;11.30;99.90
8105;DHT22;4095;48.942;9.104;2023-11-19T05:30:56;11.30;99.90
8105;DHT22;4095;48.942;9.104;2023-11-19T05:33:21;11.40;99.90
8105;DHT22;4095;48.942;9.104;2023-11-19T05:35:47;11.50;99.90
8105;DHT22;4095;48.942;9.104;2023-11-19T05:38:13;11.60;99.90
8105;DHT22;4095;48.942;9.104;2023-11-19T05:40:41;11.70;99.90
8105;DHT22;4095;48.942;9.104;2023-11-19T05:43:07;11.70;99.90
8105;DHT22;4095;48.942;9.104;2023-11-19T05:45:32;11.70;99.90
8105;DHT22;4095;48.942;9.104;2023-11-19T05:47:58;11.80;99.90
8105;DHT22;4095;48.942;9.104;2023-11-19T05:50:24;11.70;99.90
8105;DHT22;4095;48.942;9.104;2023-11-19T05:52:50;11.80;99.90
8105;DHT22;4095;48.942;9.104;2023-11-19T05:55:16;11.70;99.90
8105;DHT22;4095;48.942;9.104;2023-11-19T05:57:41;11.80;99.90
8105;DHT22;4095;48.942;9.104;2023-11-19T06:00:08;11.80;99.90
8105;DHT22;4095;48.942;9.104;2023-11-19T06:02:34;11.80;99.90
8105;DHT22;4095;48.942;9.104;2023-11-19T06:05:00;11.70;99.90
8105;DHT22;4095;48.942;9.104;2023-11-19T06:07:26;11.80;99.90
8105;DHT22;4095;48.942;9.104;2023-11-19T06:09:52;11.80;99.90
8105;DHT22;4095;48.942;9.104;2023-11-19T06:12:18;11.80;99.90
8105;DHT22;4095;48.942;9.104;2023-11-19T06:14:44;11.80;99.90
8105;DHT22;4095;48.942;9.104;2023-11-19T06:17:09;11.90;99.90
8105;DHT22;4095;48.942;9.104;2023-11-19T06:19:37;11.90;99.90
8105;DHT22;4095;48.942;9.104;2023-11-19T06:22:03;11.90;99.90
8105;DHT22;4095;48.942;9.104;2023-11-19T06:24:29;11.90;99.90
8105;DHT22;4095;48.942;9.104;2023-11-19T06:26:54;12.10;99.90
8105;DHT22;4095;48.942;9.104;2023-11-19T06:29:20;12.10;99.90
8105;DHT22;4095;48.942;9.104;2023-11-19T06:31:46;12.10;99.90
8105;DHT22;4095;48.942;9.104;2023-11-19T06:34:15;12.10;99.90
8105;DHT22;4095;48.942;9.104;2023-11-19T06:36:40;12.10;99.90
8105;DHT22;4095;48.942;9.104;2023-11-19T06:39:06;12.10;99.90
8105;DHT22;4095;48.942;9.104;2023-11-19T06:41:32;12.20;99.90
8105;DHT22;4095;48.942;9.104;2023-11-19T06:43:57;12.20;99.90
8105;DHT22;4095;48.942;9.104;2023-11-19T06:46:23;12.20;99.90
8105;DHT22;4095;48.942;9.104;2023-11-19T06:48:49;12.20;99.90
8105;DHT22;4095;48.942;9.104;2023-11-19T06:51:15;12.20;99.90
8105;DHT22;4095;48.942;9.104;2023-11-19T06:53:42;12.20;99.90
8105;DHT22;4095;48.942;9.104;2023-11-19T06:56:23;12.20;99.90
8105;DHT22;4095;48.942;9.104;2023-11-19T06:58:49;12.30;99.90
8105;DHT22;4095;48.942;9.104;2023-11-19T07:01:16;12.30;99.90
8105;DHT22;4095;48.942;9.104;2023-11-19T07:03:42;12.20;99.90
8105;DHT22;4095;48.942;9.104;2023-11-19T07:06:07;12.30;99.90
8105;DHT22;4095;48.942;9.104;2023-11-19T07:08:34;12.30;99.90
8105;DHT22;4095;48.942;9.104;2023-11-19T07:10:59;12.40;99.90
8105;DHT22;4095;48.942;9.104;2023-11-19T07:13:25;12.40;99.90
8105;DHT22;4095;48.942;9.104;2023-11-19T07:15:53;12.40;99.90
8105;DHT22;4095;48.942;9.104;2023-11-19T07:18:19;12.40;99.90
8105;DHT22;4095;48.942;9.104;2023-11-19T07:20:48;12.40;99.90
8105;DHT22;4095;48.942;9.104;2023-11-19T07:23:13;12.40;99.90
8105;DHT22;4095;48.942;9.104;2023-11-19T07:25:42;12.40;99.90
8105;DHT22;4095;48.942;9.104;2023-11-19T07:28:08;12.40;99.90
8105;DHT22;4095;48.942;9.104;2023-11-19T07:30:35;12.40;99.90
8105;DHT22;4095;48.942;9.104;2023-11-19T07:33:01;12.40;99.90
8105;DHT22;4095;48.942;9.104;2023-11-19T07:35:29;12.40;99.90
8105;DHT22;4095;48.942;9.104;2023-11-19T07:37:56;12.40;99.90
8105;DHT22;4095;48.942;9.104;2023-11-19T07:40:23;12.40;99.90
8105;DHT22;4095;48.942;9.104;2023-11-19T07:42:49;12.50;99.90
8105;DHT22;4095;48.942;9.104;2023-11-19T07:45:15;12.50;99.90
8105;DHT22;4095;48.942;9.104;2023-11-19T07:47:40;12.60;99.90
8105;DHT22;4095;48.942;9.104;2023-11-19T07:50:06;12.60;99.90
8105;DHT22;4095;48.942;9.104;2023-11-19T07:52:32;12.70;99.90
8105;DHT22;4095;48.942;9.104;2023-11-19T07:54:58;12.70;99.90
8105;DHT22;4095;48.942;9.104;2023-11-19T07:57:23;12.80;99.90
8105;DHT22;4095;48.942;9.104;2023-11-19T07:59:50;12.80;99.90
8105;DHT22;4095;48.942;9.104;2023-11-19T08:02:15;12.80;99.90
8105;DHT22;4095;48.942;9.104;2023-11-19T08:04:41;12.90;99.90
8105;DHT22;4095;48.942;9.104;2023-11-19T08:07:10;12.90;99.90
8105;DHT22;4095;48.942;9.104;2023-11-19T08:09:36;13.00;99.90
8105;DHT22;4095;48.942;9.104;2023-11-19T08:12:03;13.00;99.90
8105;DHT22;4095;48.942;9.104;2023-11-19T08:14:29;13.00;99.90
8105;DHT22;4095;48.942;9.104;2023-11-19T08:16:54;13.10;99.90
8105;DHT22;4095;48.942;9.104;2023-11-19T08:19:20;13.10;99.90
8105;DHT22;4095;48.942;9.104;2023-11-19T08:21:46;13.20;99.90
8105;DHT22;4095;48.942;9.104;2023-11-19T08:24:11;13.40;99.90
8105;DHT22;4095;48.942;9.104;2023-11-19T08:26:37;13.50;99.90
8105;DHT22;4095;48.942;9.104;2023-11-19T08:29:03;13.60;99.90
8105;DHT22;4095;48.942;9.104;2023-11-19T08:31:28;13.60;99.90
8105;DHT22;4095;48.942;9.104;2023-11-19T08:33:54;13.60;99.90
8105;DHT22;4095;48.942;9.104;2023-11-19T08:36:20;13.60;99.90
8105;DHT22;4095;48.942;9.104;2023-11-19T08:38:46;13.50;99.90
8105;DHT22;4095;48.942;9.104;2023-11-19T08:41:12;13.50;99.90
8105;DHT22;4095;48.942;9.104;2023-11-19T08:43:37;13.50;99.90
8105;DHT22;4095;48.942;9.104;2023-11-19T08:46:09;13.50;99.90
8105;DHT22;4095;48.942;9.104;2023-11-19T08:48:35;13.50;99.90
8105;DHT22;4095;48.942;9.104;2023-11-19T08:51:01;13.60;99.90
8105;DHT22;4095;48.942;9.104;2023-11-19T08:53:26;13.70;99.90
8105;DHT22;4095;48.942;9.104;2023-11-19T08:55:52;13.90;99.90
8105;DHT22;4095;48.942;9.104;2023-11-19T08:58:18;14.00;99.90
8105;DHT22;4095;48.942;9.104;2023-11-19T09:00:43;14.20;99.90
8105;DHT22;4095;48.942;9.104;2023-11-19T09:03:09;14.30;99.90
8105;DHT22;4095;48.942;9.104;2023-11-19T09:05:35;14.40;99.90
8105;DHT22;4095;48.942;9.104;2023-11-19T09:08:00;14.60;99.90
8105;DHT22;4095;48.942;9.104;2023-11-19T09:10:26;14.70;99.90
8105;DHT22;4095;48.942;9.104;2023-11-19T09:12:52;14.80;99.90
8105;DHT22;4095;48.942;9.104;2023-11-19T09:15:18;14.80;99.90
8105;DHT22;4095;48.942;9.104;2023-11-19T09:17:43;14.80;99.90
8105;DHT22;4095;48.942;9.104;2023-11-19T09:20:11;14.90;99.90
8105;DHT22;4095;48.942;9.104;2023-11-19T09:22:40;15.00;99.90
8105;DHT22;4095;48.942;9.104;2023-11-19T09:25:06;14.90;99.90
8105;DHT22;4095;48.942;9.104;2023-11-19T09:27:31;14.90;99.90
8105;DHT22;4095;48.942;9.104;2023-11-19T09:29:57;14.90;99.90
8105;DHT22;4095;48.942;9.104;2023-11-19T09:32:24;14.80;99.90
8105;DHT22;4095;48.942;9.104;2023-11-19T09:34:50;14.70;99.90
8105;DHT22;4095;48.942;9.104;2023-11-19T09:37:15;14.70;99.90
8105;DHT22;4095;48.942;9.104;2023-11-19T09:39:41;14.60;99.90
8105;DHT22;4095;48.942;9.104;2023-11-19T09:42:10;14.70;99.90
8105;DHT22;4095;48.942;9.104;2023-11-19T09:44:38;14.70;99.90
8105;DHT22;4095;48.942;9.104;2023-11-19T09:47:04;15.00;99.90
8105;DHT22;4095;48.942;9.104;2023-11-19T09:49:31;15.20;99.90
8105;DHT22;4095;48.942;9.104;2023-11-19T09:51:56;15.50;99.90
8105;DHT22;4095;48.942;9.104;2023-11-19T09:54:22;15.70;99.90
8105;DHT22;4095;48.942;9.104;2023-11-19T09:56:48;15.80;99.90
8105;DHT22;4095;48.942;9.104;2023-11-19T09:59:14;15.90;99.90
8105;DHT22;4095;48.942;9.104;2023-11-19T10:01:41;16.30;99.90
8105;DHT22;4095;48.942;9.104;2023-11-19T10:04:08;17.10;99.90
8105;DHT22;4095;48.942;9.104;2023-11-19T10:06:35;17.60;99.90
8105;DHT22;4095;48.942;9.104;2023-11-19T10:09:00;17.90;99.90
8105;DHT22;4095;48.942;9.104;2023-11-19T10:11:26;18.00;99.90
8105;DHT22;4095;48.942;9.104;2023-11-19T10:13:53;18.00;99.90
8105;DHT22;4095;48.942;9.104;2023-11-19T10:16:19;18.00;99.90
8105;DHT22;4095;48.942;9.104;2023-11-19T10:18:46;17.50;99.90
8105;DHT22;4095;48.942;9.104;2023-11-19T10:21:15;17.30;99.90
8105;DHT22;4095;48.942;9.104;2023-11-19T10:23:49;17.40;99.90
8105;DHT22;4095;48.942;9.104;2023-11-19T10:26:15;17.20;99.90
8105;DHT22;4095;48.942;9.104;2023-11-19T10:28:41;17.10;99.90
8105;DHT22;4095;48.942;9.104;2023-11-19T10:31:09;16.80;99.90
8105;DHT22;4095;48.942;9.104;2023-11-19T10:33:35;16.60;99.90
8105;DHT22;4095;48.942;9.104;2023-11-19T10:36:01;16.60;99.90
8105;DHT22;4095;48.942;9.104;2023-11-19T10:38:26;17.20;99.90
8105;DHT22;4095;48.942;9.104;2023-11-19T10:40:53;18.30;99.90
8105;DHT22;4095;48.942;9.104;2023-11-19T10:43:20;19.60;99.90
8105;DHT22;4095;48.942;9.104;2023-11-19T10:45:48;20.60;99.90
8105;DHT22;4095;48.942;9.104;2023-11-19T10:48:14;21.30;99.90
8105;DHT22;4095;48.942;9.104;2023-11-19T10:50:41;21.60;99.90
8105;DHT22;4095;48.942;9.104;2023-11-19T10:53:08;21.60;99.90
8105;DHT22;4095;48.942;9.104;2023-11-19T10:55:36;21.70;99.90
8105;DHT22;4095;48.942;9.104;2023-11-19T10:58:05;21.60;99.90
8105;DHT22;4095;48.942;9.104;2023-11-19T11:00:52;20.90;99.90
8105;DHT22;4095;48.942;9.104;2023-11-19T11:03:24;21.00;99.90
8105;DHT22;4095;48.942;9.104;2023-11-19T11:05:52;22.10;99.90
8105;DHT22;4095;48.942;9.104;2023-11-19T11:08:19;22.80;99.90
8105;DHT22;4095;48.942;9.104;2023-11-19T11:10:55;23.20;99.90
8105;DHT22;4095;48.942;9.104;2023-11-19T11:13:23;23.30;99.90
8105;DHT22;4095;48.942;9.104;2023-11-19T11:15:50;23.60;99.50
8105;DHT22;4095;48.942;9.104;2023-11-19T11:18:16;23.20;99.90
8105;DHT22;4095;48.942;9.104;2023-11-19T11:20:46;22.90;99.90
8105;DHT22;4095;48.942;9.104;2023-11-19T11:29:10;22.90;99.40
8105;DHT22;4095;48.942;9.104;2023-11-19T11:31:51;23.20;99.30
8105;DHT22;4095;48.942;9.104;2023-11-19T11:36:53;23.10;99.40
8105;DHT22;4095;48.942;9.104;2023-11-19T11:39:25;23.60;99.10
8105;DHT22;4095;48.942;9.104;2023-11-19T11:45:06;23.60;98.90
8105;DHT22;4095;48.942;9.104;2023-11-19T11:50:15;24.30;99.00
8105;DHT22;4095;48.942;9.104;2023-11-19T11:55:37;23.80;98.10
8105;DHT22;4095;48.942;9.104;2023-11-19T11:58:30;23.20;98.40
8105;DHT22;4095;48.942;9.104;2023-11-19T12:01:00;23.00;99.00
8105;DHT22;4095;48.942;9.104;2023-11-19T12:03:28;23.20;99.20
8105;DHT22;4095;48.942;9.104;2023-11-19T12:05:54;23.70;98.40
8105;DHT22;4095;48.942;9.104;2023-11-19T12:08:25;24.10;98.00
8105;DHT22;4095;48.942;9.104;2023-11-19T12:10:52;24.30;97.40
8105;DHT22;4095;48.942;9.104;2023-11-19T12:13:18;23.40;98.10
8105;DHT22;4095;48.942;9.104;2023-11-19T12:18:27;23.20;98.30
8105;DHT22;4095;48.942;9.104;2023-11-19T12:20:54;22.60;98.50
8105;DHT22;4095;48.942;9.104;2023-11-19T12:23:19;21.80;99.20
8105;DHT22;4095;48.942;9.104;2023-11-19T12:25:45;21.60;99.80
8105;DHT22;4095;48.942;9.104;2023-11-19T12:28:15;21.50;99.90
8105;DHT22;4095;48.942;9.104;2023-11-19T12:30:44;21.70;99.90
8105;DHT22;4095;48.942;9.104;2023-11-19T12:33:11;21.50;99.90
8105;DHT22;4095;48.942;9.104;2023-11-19T12:35:40;20.90;99.80
8105;DHT22;4095;48.942;9.104;2023-11-19T12:38:06;20.40;99.90
8105;DHT22;4095;48.942;9.104;2023-11-19T12:40:32;20.00;99.90
8105;DHT22;4095;48.942;9.104;2023-11-19T12:42:58;19.90;99.90
8105;DHT22;4095;48.942;9.104;2023-11-19T12:45:24;19.80;99.90
8105;DHT22;4095;48.942;9.104;2023-11-19T12:48:10;19.60;99.90
8105;DHT22;4095;48.942;9.104;2023-11-19T12:50:55;19.40;99.90
8105;DHT22;4095;48.942;9.104;2023-11-19T12:53:23;19.10;99.90
8105;DHT22;4095;48.942;9.104;2023-11-19T12:55:49;18.90;99.90
8105;DHT22;4095;48.942;9.104;2023-11-19T12:58:32;18.70;99.90
8105;DHT22;4095;48.942;9.104;2023-11-19T13:01:18;18.60;99.90
8105;DHT22;4095;48.942;9.104;2023-11-19T13:03:45;18.40;99.90
8105;DHT22;4095;48.942;9.104;2023-11-19T13:06:15;18.30;99.90
8105;DHT22;4095;48.942;9.104;2023-11-19T13:08:48;18.20;99.90
8105;DHT22;4095;48.942;9.104;2023-11-19T13:11:33;18.10;99.90
8105;DHT22;4095;48.942;9.104;2023-11-19T13:14:04;18.00;99.90
8105;DHT22;4095;48.942;9.104;2023-11-19T13:16:30;17.90;99.90
8105;DHT22;4095;48.942;9.104;2023-11-19T13:18:56;17.80;99.90
8105;DHT22;4095;48.942;9.104;2023-11-19T13:21:23;17.80;99.90
8105;DHT22;4095;48.942;9.104;2023-11-19T13:23:49;17.80;99.90
8105;DHT22;4095;48.942;9.104;2023-11-19T13:26:14;17.80;99.90
8105;DHT22;4095;48.942;9.104;2023-11-19T13:28:40;17.90;99.90
8105;DHT22;4095;48.942;9.104;2023-11-19T13:31:06;17.90;99.90
8105;DHT22;4095;48.942;9.104;2023-11-19T13:33:32;17.80;99.90
8105;DHT22;4095;48.942;9.104;2023-11-19T13:35:57;17.90;99.90
8105;DHT22;4095;48.942;9.104;2023-11-19T13:38:23;18.00;99.90
8105;DHT22;4095;48.942;9.104;2023-11-19T13:40:49;18.10;99.90
8105;DHT22;4095;48.942;9.104;2023-11-19T13:43:15;18.20;99.90
8105;DHT22;4095;48.942;9.104;2023-11-19T13:45:41;18.20;99.90
8105;DHT22;4095;48.942;9.104;2023-11-19T13:48:06;18.20;99.90
8105;DHT22;4095;48.942;9.104;2023-11-19T13:50:32;18.10;99.90
8105;DHT22;4095;48.942;9.104;2023-11-19T13:52:59;18.10;99.90
8105;DHT22;4095;48.942;9.104;2023-11-19T13:55:25;18.00;99.90
8105;DHT22;4095;48.942;9.104;2023-11-19T13:57:51;18.00;99.90
8105;DHT22;4095;48.942;9.104;2023-11-19T14:00:17;17.90;99.90
8105;DHT22;4095;48.942;9.104;2023-11-19T14:02:45;17.80;99.90
8105;DHT22;4095;48.942;9.104;2023-11-19T14:05:12;17.80;99.90
8105;DHT22;4095;48.942;9.104;2023-11-19T14:07:38;17.80;99.90
8105;DHT22;4095;48.942;9.104;2023-11-19T14:10:05;17.70;99.90
8105;DHT22;4095;48.942;9.104;2023-11-19T14:12:32;17.70;99.90
8105;DHT22;4095;48.942;9.104;2023-11-19T14:14:58;17.60;99.90
8105;DHT22;4095;48.942;9.104;2023-11-19T14:17:24;17.50;99.90
8105;DHT22;4095;48.942;9.104;2023-11-19T14:19:50;17.50;99.90
8105;DHT22;4095;48.942;9.104;2023-11-19T14:22:16;17.50;99.90
8105;DHT22;4095;48.942;9.104;2023-11-19T14:24:42;17.50;99.90
8105;DHT22;4095;48.942;9.104;2023-11-19T14:27:09;17.40;99.90
8105;DHT22;4095;48.942;9.104;2023-11-19T14:29:35;17.40;99.90
8105;DHT22;4095;48.942;9.104;2023-11-19T14:32:02;17.40;99.90
8105;DHT22;4095;48.942;9.104;2023-11-19T14:34:29;17.30;99.90
8105;DHT22;4095;48.942;9.104;2023-11-19T14:36:54;17.10;99.90
8105;DHT22;4095;48.942;9.104;2023-11-19T14:39:20;17.10;99.90
8105;DHT22;4095;48.942;9.104;2023-11-19T14:41:46;17.00;99.90
8105;DHT22;4095;48.942;9.104;2023-11-19T14:44:11;16.90;99.90
8105;DHT22;4095;48.942;9.104;2023-11-19T14:46:38;16.80;99.90
8105;DHT22;4095;48.942;9.104;2023-11-19T14:49:03;16.70;99.90
8105;DHT22;4095;48.942;9.104;2023-11-19T14:51:30;16.60;99.90
8105;DHT22;4095;48.942;9.104;2023-11-19T14:53:55;16.40;99.90
8105;DHT22;4095;48.942;9.104;2023-11-19T14:56:21;16.30;99.90
8105;DHT22;4095;48.942;9.104;2023-11-19T14:58:47;16.20;99.90
8105;DHT22;4095;48.942;9.104;2023-11-19T15:01:13;16.20;99.90
8105;DHT22;4095;48.942;9.104;2023-11-19T15:03:39;16.20;99.90
8105;DHT22;4095;48.942;9.104;2023-11-19T15:06:05;16.10;99.90
8105;DHT22;4095;48.942;9.104;2023-11-19T15:08:32;16.10;99.90
8105;DHT22;4095;48.942;9.104;2023-11-19T15:10:58;16.00;99.90
8105;DHT22;4095;48.942;9.104;2023-11-19T15:13:25;15.90;99.90
8105;DHT22;4095;48.942;9.104;2023-11-19T15:15:50;15.80;99.90
8105;DHT22;4095;48.942;9.104;2023-11-19T15:18:18;15.80;99.90
8105;DHT22;4095;48.942;9.104;2023-11-19T15:20:44;15.70;99.90
8105;DHT22;4095;48.942;9.104;2023-11-19T15:23:13;15.60;99.90
8105;DHT22;4095;48.942;9.104;2023-11-19T15:25:38;15.60;99.90
8105;DHT22;4095;48.942;9.104;2023-11-19T15:28:04;15.60;99.90
8105;DHT22;4095;48.942;9.104;2023-11-19T15:30:30;15.60;99.90
8105;DHT22;4095;48.942;9.104;2023-11-19T15:32:55;15.50;99.90
8105;DHT22;4095;48.942;9.104;2023-11-19T15:35:21;15.50;99.90
8105;DHT22;4095;48.942;9.104;2023-11-19T15:37:47;15.40;99.90
8105;DHT22;4095;48.942;9.104;2023-11-19T15:40:12;15.40;99.90
8105;DHT22;4095;48.942;9.104;2023-11-19T15:42:39;15.30;99.90
8105;DHT22;4095;48.942;9.104;2023-11-19T15:45:12;15.20;99.90
8105;DHT22;4095;48.942;9.104;2023-11-19T15:47:38;15.10;99.90
8105;DHT22;4095;48.942;9.104;2023-11-19T15:50:04;15.00;99.90
8105;DHT22;4095;48.942;9.104;2023-11-19T15:52:30;15.00;99.90
8105;DHT22;4095;48.942;9.104;2023-11-19T15:54:56;14.90;99.90
8105;DHT22;4095;48.942;9.104;2023-11-19T15:57:22;14.80;99.90
8105;DHT22;4095;48.942;9.104;2023-11-19T15:59:48;14.70;99.90
8105;DHT22;4095;48.942;9.104;2023-11-19T16:02:14;14.70;99.90
8105;DHT22;4095;48.942;9.104;2023-11-19T16:04:40;14.60;99.90
8105;DHT22;4095;48.942;9.104;2023-11-19T16:07:06;14.40;99.90
8105;DHT22;4095;48.942;9.104;2023-11-19T16:09:32;14.30;99.90
8105;DHT22;4095;48.942;9.104;2023-11-19T16:11:58;14.20;99.90
8105;DHT22;4095;48.942;9.104;2023-11-19T16:14:24;14.10;99.90
8105;DHT22;4095;48.942;9.104;2023-11-19T16:16:50;13.90;99.90
8105;DHT22;4095;48.942;9.104;2023-11-19T16:19:16;13.90;99.90